Time;durP1;ratioP1;P1;durP2;ratioP2;P2;SDS_P1;SDS_P2;PMS_P1;PMS_P2;Temp;Humidity;BMP_temperature;BMP_pressure;BME280_temperature;BME280_humidity;BME280_pressure;Samples;Min_cycle;Max_cycle;Signal;HPM_P1;HPM_P2
2022/03/29 00:00:12;;;;;;;12.00;10.68;;;;;;;12.38;33.41;95219.91;4952795;28;20113;-67
2022/03/29 00:02:38;;;;;;;15.88;11.00;;;;;;;12.49;33.39;95239.88;4953035;28;20019;-67
2022/03/29 00:05:04;;;;;;;15.77;11.57;;;;;;;12.45;33.52;95226.38;4953100;28;20034;-67
2022/03/29 00:07:30;;;;;;;17.50;11.82;;;;;;;12.54;33.54;95249.59;4953273;28;20027;-68
2022/03/29 00:09:55;;;;;;;15.25;11.70;;;;;;;12.39;33.33;95226.84;4953023;28;20412;-67
2022/03/29 00:12:21;;;;;;;15.13;12.02;;;;;;;12.32;33.62;95208.63;4952486;28;20083;-68
2022/03/29 00:14:46;;;;;;;15.60;11.63;;;;;;;12.53;33.18;95245.34;4967814;28;20034;-67
2022/03/29 00:17:11;;;;;;;15.68;11.75;;;;;;;12.46;33.54;95230.59;4953018;29;20028;-68
2022/03/29 00:19:37;;;;;;;16.77;11.45;;;;;;;12.33;33.44;95209.41;4967743;28;20038;-68
2022/03/29 00:22:02;;;;;;;14.55;11.48;;;;;;;12.41;33.69;95217.41;4952464;28;20106;-67
2022/03/29 00:24:28;;;;;;;16.17;11.70;;;;;;;12.48;34.00;95236.41;4967328;28;20034;-66
2022/03/29 00:26:53;;;;;;;14.80;10.63;;;;;;;12.46;33.82;95227.94;4952723;28;20027;-66
2022/03/29 00:29:19;;;;;;;15.95;10.98;;;;;;;12.22;33.73;95188.38;4953084;28;20056;-67
2022/03/29 00:31:44;;;;;;;17.48;11.88;;;;;;;12.36;33.91;95203.44;4953255;28;20600;-66
2022/03/29 00:34:09;;;;;;;16.40;11.43;;;;;;;12.28;34.37;95194.31;4956356;28;20023;-67
2022/03/29 00:36:35;;;;;;;17.20;11.80;;;;;;;12.45;33.89;95223.69;4956186;28;20420;-67
2022/03/29 00:39:00;;;;;;;14.27;11.85;;;;;;;12.38;33.82;95211.91;4956396;28;20046;-67
2022/03/29 00:41:26;;;;;;;17.63;12.05;;;;;;;12.28;33.82;95193.53;4970845;28;20024;-68
2022/03/29 00:43:51;;;;;;;14.63;10.77;;;;;;;12.41;34.49;95213.97;4956374;28;20031;-66
2022/03/29 00:46:17;;;;;;;15.25;11.25;;;;;;;12.39;34.41;95208.16;4956032;28;20031;-67
2022/03/29 00:48:42;;;;;;;15.40;11.27;;;;;;;12.23;34.33;95189.97;4956044;28;20027;-67
2022/03/29 00:51:08;;;;;;;17.02;12.70;;;;;;;12.20;33.87;95184.47;4954436;29;20511;-67
2022/03/29 00:53:33;;;;;;;14.68;11.85;;;;;;;12.21;34.33;95202.03;4956228;28;20028;-67
2022/03/29 00:56:00;;;;;;;17.13;11.43;;;;;;;12.32;34.63;95207.84;4955796;28;20477;-67
2022/03/29 00:58:25;;;;;;;15.35;11.65;;;;;;;12.26;34.59;95199.19;4970866;28;20425;-67
2022/03/29 01:00:53;;;;;;;17.15;11.15;;;;;;;12.21;34.53;95188.69;4955618;28;20074;-67
2022/03/29 01:03:18;;;;;;;13.80;11.43;;;;;;;12.17;34.64;95185.84;4970858;28;20027;-66
2022/03/29 01:05:44;;;;;;;15.55;11.63;;;;;;;12.29;34.05;95195.13;4955807;28;20516;-66
2022/03/29 01:08:10;;;;;;;15.90;11.48;;;;;;;12.12;34.27;95169.22;4970664;28;20047;-67
2022/03/29 01:10:35;;;;;;;15.68;10.75;;;;;;;12.21;34.88;95184.13;4955442;28;20102;-67
2022/03/29 01:13:00;;;;;;;15.85;12.10;;;;;;;12.16;34.60;95180.84;4955537;28;20449;-66
2022/03/29 01:15:29;;;;;;;16.73;11.32;;;;;;;12.18;34.75;95173.31;4955515;28;20555;-66
2022/03/29 01:17:55;;;;;;;15.02;11.32;;;;;;;12.08;34.81;95157.59;4955638;28;20031;-66
2022/03/29 01:20:24;;;;;;;14.65;11.00;;;;;;;12.24;34.42;95182.75;4955195;28;20090;-67
2022/03/29 01:22:51;;;;;;;17.77;11.52;;;;;;;12.12;34.89;95151.34;4955410;28;20019;-67
2022/03/29 01:25:26;;;;;;;25.58;12.43;;;;;;;12.25;34.47;95164.84;4955545;28;20031;-66
2022/03/29 01:27:52;;;;;;;22.45;12.15;;;;;;;12.14;34.61;95148.38;4955630;28;20033;-66
2022/03/29 01:30:19;;;;;;;13.35;11.02;;;;;;;12.27;34.88;95159.97;4954642;28;20030;-67
2022/03/29 01:32:46;;;;;;;16.33;11.43;;;;;;;12.19;34.77;95150.88;4955253;28;20039;-66
2022/03/29 01:35:13;;;;;;;15.75;11.13;;;;;;;12.18;34.73;95146.63;4953891;28;20031;-65
2022/03/29 01:37:39;;;;;;;16.55;11.65;;;;;;;12.20;35.22;95157.78;4955257;28;20094;-67
2022/03/29 01:40:07;;;;;;;17.17;11.80;;;;;;;12.18;34.73;95154.63;4955267;28;20035;-66
2022/03/29 01:42:32;;;;;;;16.77;11.35;;;;;;;12.06;34.81;95130.47;4954793;28;20629;-67
2022/03/29 01:45:00;;;;;;;18.40;12.43;;;;;;;12.06;35.38;95133.16;4955052;28;20039;-67
2022/03/29 01:47:26;;;;;;;17.98;12.75;;;;;;;12.12;35.09;95140.69;4955145;28;20032;-67
2022/03/29 01:49:51;;;;;;;15.65;11.02;;;;;;;12.03;35.50;95142.56;4955069;28;20038;-67
2022/03/29 01:52:16;;;;;;;13.82;11.82;;;;;;;11.81;34.94;95095.47;4954705;29;20027;-67
2022/03/29 01:54:42;;;;;;;16.10;11.60;;;;;;;11.87;35.29;95104.13;4954915;28;20081;-67
2022/03/29 01:57:07;;;;;;;18.85;11.82;;;;;;;12.03;35.47;95131.09;4954793;28;20027;-67
2022/03/29 02:00:30;;;;;;;16.17;10.35;;;;;;;12.00;35.54;95121.84;4955243;28;20469;-66
2022/03/29 02:02:18;;;;;;;15.05;12.20;;;;;;;11.98;35.84;95121.41;4954357;29;20035;-66
2022/03/29 02:04:43;;;;;;;18.27;12.65;;;;;;;11.94;35.89;95112.44;4969588;28;20042;-66
2022/03/29 02:07:09;;;;;;;20.25;11.85;;;;;;;11.73;35.61;95074.16;4954648;28;20109;-66
2022/03/29 02:09:34;;;;;;;22.55;11.57;;;;;;;11.77;35.41;95085.72;4954527;28;20031;-66
2022/03/29 02:12:01;;;;;;;18.67;12.13;;;;;;;11.65;36.25;95075.69;4952966;29;20032;-66
2022/03/29 02:14:26;;;;;;;15.93;11.70;;;;;;;11.77;36.07;95089.19;4954483;29;20546;-66
2022/03/29 02:16:51;;;;;;;16.45;12.50;;;;;;;11.87;35.74;95114.78;4969442;28;20035;-66
2022/03/29 02:19:17;;;;;;;18.20;12.13;;;;;;;11.66;36.60;95082.59;4953417;29;20037;-66
2022/03/29 02:21:42;;;;;;;17.17;11.48;;;;;;;11.77;36.53;95089.19;4954027;28;20110;-66
2022/03/29 02:24:07;;;;;;;16.70;11.82;;;;;;;11.72;35.92;95081.38;4954445;28;20348;-67
2022/03/29 02:26:33;;;;;;;17.70;12.15;;;;;;;11.83;36.37;95089.88;4954360;28;20023;-66
2022/03/29 02:28:58;;;;;;;16.52;12.27;;;;;;;11.82;36.68;95093.59;4954363;28;20042;-66
2022/03/29 02:31:24;;;;;;;16.75;11.40;;;;;;;11.71;36.28;95074.44;4953813;28;20078;-66
2022/03/29 02:33:50;;;;;;;16.45;10.70;;;;;;;11.56;37.04;95050.91;4954192;28;20023;-67
2022/03/29 02:36:16;;;;;;;18.10;11.95;;;;;;;11.68;36.89;95075.09;4951838;29;20039;-68
2022/03/29 02:38:41;;;;;;;18.35;11.48;;;;;;;11.77;36.42;95077.75;4953358;28;20452;-67
2022/03/29 02:41:07;;;;;;;13.57;11.88;;;;;;;11.49;36.76;95040.75;4954027;28;20024;-67
2022/03/29 02:43:32;;;;;;;17.25;11.73;;;;;;;11.64;37.08;95063.47;4954085;28;20082;-67
2022/03/29 02:45:57;;;;;;;14.93;11.90;;;;;;;11.61;36.76;95056.09;4954048;28;20031;-67
2022/03/29 02:48:23;;;;;;;15.90;12.40;;;;;;;11.68;37.18;95059.09;4952594;28;20039;-67
2022/03/29 02:50:48;;;;;;;14.65;11.88;;;;;;;11.52;37.03;95039.34;4953647;28;20029;-67
2022/03/29 02:53:15;;;;;;;14.60;11.57;;;;;;;11.64;36.86;95056.28;4953822;28;20036;-67
2022/03/29 02:55:41;;;;;;;16.20;12.45;;;;;;;11.65;37.01;95062.38;4953065;28;20114;-67
2022/03/29 02:58:07;;;;;;;15.45;11.20;;;;;;;11.72;37.13;95070.72;4953791;28;20023;-68
2022/03/29 03:00:32;;;;;;;16.90;12.20;;;;;;;11.70;36.76;95075.56;4953240;29;20037;-68
2022/03/29 03:02:59;;;;;;;13.88;11.90;;;;;;;11.57;37.28;95044.53;4953837;28;20428;-67
2022/03/29 03:05:25;;;;;;;19.08;10.88;;;;;;;11.52;37.50;95039.34;4953568;28;20063;-67
2022/03/29 03:07:51;;;;;;;15.82;11.15;;;;;;;11.52;36.86;95052.66;4953479;29;20070;-65
2022/03/29 03:10:16;;;;;;;14.68;11.80;;;;;;;11.49;37.51;95042.63;4953266;28;20102;-66
2022/03/29 03:12:46;;;;;;;17.02;12.00;;;;;;;11.43;37.00;95034.78;4953462;28;20437;-65
2022/03/29 03:15:14;;;;;;;19.20;11.82;;;;;;;11.57;37.75;95045.31;4952041;29;20019;-65
2022/03/29 03:17:39;;;;;;;15.40;11.38;;;;;;;11.61;37.27;95048.88;4953572;28;20373;-66
2022/03/29 03:20:06;;;;;;;14.25;11.90;;;;;;;11.60;37.51;95038.56;4953246;28;20023;-66
2022/03/29 03:22:32;;;;;;;15.07;11.43;;;;;;;11.70;36.77;95060.34;4953273;28;20031;-65
2022/03/29 03:24:57;;;;;;;15.80;11.40;;;;;;;11.73;37.52;95052.84;4951972;28;20031;-67
2022/03/29 03:27:22;;;;;;;20.77;12.45;;;;;;;11.72;37.12;95052.06;4952021;28;20405;-66
2022/03/29 03:29:48;;;;;;;27.70;12.65;;;;;;;11.60;37.54;95031.34;4952076;29;20476;-66
2022/03/29 03:32:14;;;;;;;18.92;12.60;;;;;;;11.73;37.08;95047.50;4952665;28;20045;-66
2022/03/29 03:34:40;;;;;;;18.50;12.15;;;;;;;11.60;36.93;95022.56;4953127;29;20115;-67
2022/03/29 03:37:06;;;;;;;15.57;11.95;;;;;;;11.68;37.79;95045.78;4953355;28;20023;-67
2022/03/29 03:39:34;;;;;;;21.75;12.88;;;;;;;11.67;37.13;95034.34;4953137;28;20035;-67
2022/03/29 03:42:08;;;;;;;15.45;11.63;;;;;;;11.68;37.56;95035.91;4952738;28;20035;-69
2022/03/29 03:44:34;;;;;;;17.92;12.07;;;;;;;11.67;36.96;95028.22;4953091;28;20078;-66
2022/03/29 03:47:02;;;;;;;12.93;10.98;;;;;;;11.49;37.26;94995.47;4953140;28;20027;-66
2022/03/29 03:49:27;;;;;;;17.55;11.13;;;;;;;11.67;37.40;95020.25;4953054;28;20034;-66
2022/03/29 03:51:53;;;;;;;16.55;10.95;;;;;;;11.67;37.75;95021.03;4952686;28;20020;-66
2022/03/29 03:54:18;;;;;;;15.27;11.65;;;;;;;11.61;37.67;95014.25;4952757;28;20031;-66
2022/03/29 03:56:43;;;;;;;16.65;11.85;;;;;;;11.40;37.67;94986.66;4952872;28;20035;-67
2022/03/29 03:59:09;;;;;;;15.43;12.10;;;;;;;11.47;37.73;94996.88;4951693;29;20034;-67
2022/03/29 04:01:34;;;;;;;14.55;12.00;;;;;;;11.52;37.64;95002.84;4967312;28;20059;-67
2022/03/29 04:04:00;;;;;;;16.52;10.70;;;;;;;11.60;37.69;95006.59;4952800;28;20063;-67
2022/03/29 04:06:25;;;;;;;13.57;10.82;;;;;;;11.68;38.10;95016.47;4955283;28;20043;-66
2022/03/29 04:08:51;;;;;;;16.92;11.52;;;;;;;11.66;37.37;95014.09;4956791;29;20487;-67
2022/03/29 04:11:16;;;;;;;17.00;12.48;;;;;;;11.48;37.88;94979.78;4956340;28;20031;-66
2022/03/29 04:13:42;;;;;;;15.77;11.20;;;;;;;11.45;37.64;94983.84;4956803;28;20043;-65
2022/03/29 04:16:07;;;;;;;14.98;11.07;;;;;;;11.53;37.65;94982.31;4971109;28;20143;-66
2022/03/29 04:18:32;;;;;;;17.52;11.70;;;;;;;11.65;37.74;94995.78;4956563;28;20388;-66
2022/03/29 04:20:58;;;;;;;13.50;11.13;;;;;;;11.63;37.33;94980.13;4956554;28;20114;-65
2022/03/29 04:23:23;;;;;;;15.43;10.98;;;;;;;11.74;37.40;94988.56;4956615;28;20644;-66
2022/03/29 04:25:49;;;;;;;15.13;10.90;;;;;;;11.59;37.83;94960.53;4955225;28;20035;-66
2022/03/29 04:28:14;;;;;;;18.13;11.50;;;;;;;11.74;37.42;94975.25;4956428;28;20102;-65
2022/03/29 04:30:39;;;;;;;17.27;10.65;;;;;;;11.22;37.48;94895.38;4955995;28;20031;-65
2022/03/29 04:33:06;;;;;;;14.77;11.45;;;;;;;11.60;37.25;94946.09;4955194;29;20031;-65
2022/03/29 04:35:31;;;;;;;17.48;11.48;;;;;;;11.69;37.40;94959.41;4955199;29;20035;-64
2022/03/29 04:37:57;;;;;;;14.55;11.10;;;;;;;11.51;37.80;94941.88;4956228;28;20102;-65
2022/03/29 04:40:22;;;;;;;16.25;11.57;;;;;;;11.67;37.96;94958.97;4955513;28;20146;-65
2022/03/29 04:42:51;;;;;;;13.90;11.35;;;;;;;11.63;37.50;94948.13;4954885;29;20102;-66
2022/03/29 04:45:18;;;;;;;14.15;11.07;;;;;;;11.76;37.51;94959.72;4954933;28;20027;-67
2022/03/29 04:47:45;;;;;;;16.63;11.60;;;;;;;11.56;37.34;94915.06;4956106;28;20071;-64
2022/03/29 04:50:12;;;;;;;16.05;11.48;;;;;;;11.79;37.33;94948.44;4955757;28;20031;-64
2022/03/29 04:52:39;;;;;;;15.05;12.10;;;;;;;11.81;37.98;94954.22;4955944;28;20091;-65
2022/03/29 04:55:06;;;;;;;17.98;11.55;;;;;;;11.92;37.13;94960.03;4955928;28;20424;-64
2022/03/29 04:57:32;;;;;;;16.10;10.63;;;;;;;11.66;37.42;94912.84;4955872;28;20031;-64
2022/03/29 04:59:57;;;;;;;18.27;12.18;;;;;;;11.76;37.46;94933.06;4955697;28;20388;-66
2022/03/29 05:02:23;;;;;;;12.43;11.13;;;;;;;11.77;38.05;94931.97;4955300;28;20027;-64
2022/03/29 05:04:49;;;;;;;17.92;12.43;;;;;;;11.84;37.92;94939.53;4955489;28;20035;-65
2022/03/29 05:07:15;;;;;;;19.52;11.25;;;;;;;11.77;38.25;94928.53;4955593;28;20024;-63
2022/03/29 05:09:41;;;;;;;13.68;11.15;;;;;;;11.80;37.68;94938.56;4956021;28;20350;-62
2022/03/29 05:12:06;;;;;;;16.35;11.50;;;;;;;11.78;37.26;94922.91;4955312;28;20361;-64
2022/03/29 05:14:33;;;;;;;14.77;11.70;;;;;;;11.80;37.51;94928.69;4954129;28;20102;-63
2022/03/29 05:16:58;;;;;;;17.55;11.77;;;;;;;11.69;37.86;94908.78;4955131;28;20055;-64
2022/03/29 05:19:24;;;;;;;16.10;11.52;;;;;;;11.83;37.08;94920.09;4955224;29;20595;-64
2022/03/29 05:21:49;;;;;;;18.35;11.50;;;;;;;11.86;37.54;94916.78;4955053;28;20035;-63
2022/03/29 05:24:15;;;;;;;27.05;11.27;;;;;;;11.90;37.49;94916.94;4955303;28;20049;-64
2022/03/29 05:26:40;;;;;;;19.52;11.45;;;;;;;11.97;37.37;94933.22;4955011;28;20058;-65
2022/03/29 05:29:06;;;;;;;21.45;11.60;;;;;;;11.98;37.50;94921.47;4955343;28;20062;-62
2022/03/29 05:31:31;;;;;;;21.15;11.57;;;;;;;11.87;37.43;94907.69;4953474;28;20055;-63
2022/03/29 05:33:56;;;;;;;19.77;10.77;;;;;;;11.92;37.51;94904.84;4955351;28;20027;-63
2022/03/29 05:36:22;;;;;;;18.33;10.25;;;;;;;12.12;36.66;94921.25;4955053;28;20038;-62
2022/03/29 05:38:50;;;;;;;14.38;11.63;;;;;;;12.07;36.97;94900.88;4955085;28;20066;-62
2022/03/29 05:41:19;;;;;;;15.48;11.18;;;;;;;12.33;36.67;94932.00;4953186;28;20027;-63
2022/03/29 05:43:45;;;;;;;24.83;12.00;;;;;;;12.04;37.20;94874.88;4955020;28;20023;-63
2022/03/29 05:48:57;;;;;;;23.15;11.25;;;;;;;12.64;36.58;94937.88;4954355;29;20613;-63
2022/03/29 05:51:26;;;;;;;21.20;10.23;;;;;;;12.54;36.67;94913.41;4954382;28;20380;-62
2022/03/29 05:53:53;;;;;;;16.90;10.35;;;;;;;12.74;36.23;94936.69;4953230;28;20469;-65
2022/03/29 05:56:19;;;;;;;16.33;10.73;;;;;;;12.79;36.19;94943.75;4954543;28;20039;-66
2022/03/29 05:58:44;;;;;;;13.95;10.57;;;;;;;12.72;36.27;94915.69;4953447;29;20031;-66
2022/03/29 06:01:10;;;;;;;12.60;10.18;;;;;;;12.90;36.05;94947.63;4953004;29;20035;-65
2022/03/29 06:03:35;;;;;;;14.30;10.02;;;;;;;12.98;35.91;94946.78;4953387;29;20038;-68
2022/03/29 06:06:00;;;;;;;16.45;10.40;;;;;;;12.93;35.92;94937.06;4953461;29;20190;-68
2022/03/29 06:08:26;;;;;;;12.75;10.23;;;;;;;12.74;35.91;94899.34;4954646;28;20027;-70
2022/03/29 06:10:53;;;;;;;22.38;10.38;;;;;;;12.81;35.68;94899.63;4954089;28;20039;-69
2022/03/29 06:13:18;;;;;;;20.08;10.82;;;;;;;12.56;35.51;94852.53;4969160;28;20023;-70
2022/03/29 06:15:44;;;;;;;22.27;10.82;;;;;;;13.19;35.30;94952.16;4954401;28;20111;-66
2022/03/29 06:18:09;;;;;;;17.73;10.38;;;;;;;13.05;35.64;94925.72;4952906;29;20034;-66
2022/03/29 06:20:34;;;;;;;17.83;11.85;;;;;;;13.14;35.09;94923.75;4954197;28;20027;-66
2022/03/29 06:23:00;;;;;;;19.77;10.20;;;;;;;13.18;35.48;94939.91;4954233;28;20473;-66
2022/03/29 06:25:25;;;;;;;19.17;10.88;;;;;;;13.19;35.01;94904.84;4954365;28;20456;-66
2022/03/29 06:27:51;;;;;;;21.52;10.52;;;;;;;13.61;34.74;94930.78;4954311;28;20589;-66
2022/03/29 06:30:17;;;;;;;17.15;10.60;;;;;;;13.72;34.49;94948.00;4952399;28;20033;-65
2022/03/29 06:32:50;;;;;;;12.05;10.63;;;;;;;14.10;34.07;94949.69;4954113;28;20031;-67
2022/03/29 06:35:21;;;;;;;17.40;10.60;;;;;;;14.35;33.94;94948.63;4953643;28;20110;-67
2022/03/29 06:37:48;;;;;;;14.25;10.13;;;;;;;14.41;33.55;94931.25;4954101;28;20473;-67
2022/03/29 06:40:14;;;;;;;18.38;10.57;;;;;;;14.72;33.09;94946.03;4953555;28;20090;-67
2022/03/29 06:42:39;;;;;;;19.55;11.20;;;;;;;14.75;33.23;94922.03;4952839;28;20432;-66
2022/03/29 06:45:08;;;;;;;16.98;10.75;;;;;;;14.89;32.70;94935.06;4953894;28;20094;-67
2022/03/29 06:47:33;;;;;;;18.02;10.75;;;;;;;15.07;32.44;94944.44;4953612;28;20031;-66
2022/03/29 06:50:06;;;;;;;21.25;10.90;;;;;;;15.07;32.69;94923.00;5088274;27;20874;-67
2022/03/29 06:52:35;;;;;;;17.10;10.70;;;;;;;15.17;32.26;94932.50;5088144;28;20032;-66
2022/03/29 06:55:01;;;;;;;20.42;10.55;;;;;;;15.06;32.16;94918.00;5087116;28;20020;-65
2022/03/29 06:57:27;;;;;;;27.38;11.05;;;;;;;15.21;32.34;94932.59;5086974;28;20028;-67
2022/03/29 06:59:52;;;;;;;16.42;10.23;;;;;;;15.23;32.07;94927.69;5088131;28;20031;-66
2022/03/29 07:02:19;;;;;;;19.58;10.52;;;;;;;15.37;32.05;94920.06;5087572;28;20120;-66
2022/03/29 07:04:45;;;;;;;21.88;11.75;;;;;;;15.52;31.79;94908.63;5088332;28;20031;-67
2022/03/29 07:07:10;;;;;;;16.05;10.02;;;;;;;15.52;32.01;94891.75;5087155;28;20017;-66
2022/03/29 07:12:20;;;;;;;14.13;9.95;;;;;;;16.02;31.36;94919.94;5088052;28;20069;-66
2022/03/29 07:14:46;;;;;;;18.83;10.38;;;;;;;16.16;30.80;94906.13;5088031;28;20024;-66
2022/03/29 07:17:13;;;;;;;14.45;10.20;;;;;;;16.26;30.68;94887.59;5088065;28;20028;-66
2022/03/29 07:19:39;;;;;;;22.27;10.57;;;;;;;16.50;30.27;94891.25;5087983;28;20056;-67
2022/03/29 07:22:05;;;;;;;16.30;9.30;;;;;;;16.60;30.16;94875.38;5087362;28;20103;-66
2022/03/29 07:24:30;;;;;;;21.20;10.20;;;;;;;16.91;29.71;94889.91;5087753;28;20099;-66
2022/03/29 07:26:56;;;;;;;13.65;9.98;;;;;;;17.08;29.70;94886.84;5087369;28;20472;-66
2022/03/29 07:29:21;;;;;;;13.27;8.88;;;;;;;17.48;28.65;94904.56;5087849;28;20025;-66
2022/03/29 07:31:47;;;;;;;13.70;9.40;;;;;;;17.63;28.90;94886.81;5087152;28;20512;-66
2022/03/29 07:34:12;;;;;;;17.88;10.20;;;;;;;17.70;27.98;94875.41;5086158;28;20052;-66
2022/03/29 07:36:38;;;;;;;13.95;9.77;;;;;;;17.91;27.52;94887.41;5086100;28;20534;-66
2022/03/29 07:39:04;;;;;;;14.10;10.68;;;;;;;18.29;27.53;94904.59;5086249;28;20024;-66
2022/03/29 07:41:30;;;;;;;14.63;9.27;;;;;;;18.14;27.24;94889.31;5087059;28;20025;-66
2022/03/29 07:43:56;;;;;;;10.95;9.27;;;;;;;18.32;26.92;94885.00;5087360;28;20027;-66
2022/03/29 07:46:21;;;;;;;13.25;9.55;;;;;;;18.25;26.95;94894.91;5087388;28;20536;-66
2022/03/29 07:48:46;;;;;;;14.35;9.85;;;;;;;18.68;26.75;94891.81;5086076;28;20085;-67
2022/03/29 07:51:12;;;;;;;11.75;9.93;;;;;;;18.65;26.28;94883.63;5085401;28;20417;-67
2022/03/29 07:53:38;;;;;;;11.55;9.73;;;;;;;19.16;26.28;94910.22;5086089;28;20529;-67
2022/03/29 07:56:04;;;;;;;13.95;9.95;;;;;;;19.41;25.80;94905.16;5087293;28;20484;-67
2022/03/29 07:58:30;;;;;;;11.13;10.02;;;;;;;18.93;25.36;94883.31;5087424;28;20423;-67
2022/03/29 08:00:55;;;;;;;12.25;10.00;;;;;;;19.09;24.97;94905.50;5076282;28;20020;-67
2022/03/29 08:03:21;;;;;;;15.07;10.45;;;;;;;18.75;25.02;94893.81;5072272;28;20036;-67
2022/03/29 08:05:48;;;;;;;12.27;9.95;;;;;;;17.46;26.22;94866.50;5073327;28;20112;-65
2022/03/29 08:08:15;;;;;;;14.48;10.20;;;;;;;17.41;26.71;94872.94;5073415;28;20028;-67
2022/03/29 08:10:42;;;;;;;15.32;10.23;;;;;;;17.72;26.18;94882.00;5073142;28;20025;-67
2022/03/29 08:13:08;;;;;;;15.95;10.35;;;;;;;18.10;25.87;94905.41;5073514;28;20043;-68
2022/03/29 08:15:38;;;;;;;20.50;10.20;;;;;;;18.71;25.54;94901.06;5071971;28;20116;-66
2022/03/29 08:18:04;;;;;;;12.07;10.80;;;;;;;18.96;25.20;94904.94;5073357;28;20107;-66
2022/03/29 08:20:29;;;;;;;10.82;9.73;;;;;;;18.07;26.14;94891.91;5072837;28;20081;-66
2022/03/29 08:22:59;;;;;;;14.27;10.43;;;;;;;19.38;25.00;94908.56;5071654;28;20041;-67
2022/03/29 08:25:24;;;;;;;18.10;10.70;;;;;;;19.10;24.87;94898.97;5071863;28;20032;-67
2022/03/29 08:27:50;;;;;;;13.20;10.48;;;;;;;19.36;24.90;94881.22;5072918;28;20473;-67
2022/03/29 08:30:16;;;;;;;13.63;9.90;;;;;;;19.92;24.55;94886.53;5072970;28;20530;-67
2022/03/29 08:32:42;;;;;;;12.65;9.93;;;;;;;19.39;24.59;94885.84;5073212;28;20024;-67
2022/03/29 08:35:10;;;;;;;15.35;10.50;;;;;;;19.10;24.79;94880.09;5071963;28;20042;-67
2022/03/29 08:37:36;;;;;;;13.95;11.52;;;;;;;17.75;26.04;94865.16;5071667;28;20025;-67
2022/03/29 08:40:06;;;;;;;17.60;11.40;;;;;;;16.87;26.78;94813.84;5072736;28;20032;-67
2022/03/29 08:42:31;;;;;;;17.92;11.05;;;;;;;18.01;25.86;94853.72;5072331;28;20033;-68
2022/03/29 08:44:58;;;;;;;17.25;10.55;;;;;;;17.80;25.73;94867.56;5072747;28;20024;-66
2022/03/29 08:47:25;;;;;;;16.17;11.25;;;;;;;18.77;24.85;94888.84;5072848;28;20103;-66
2022/03/29 08:49:50;;;;;;;16.25;11.93;;;;;;;18.00;25.68;94886.38;5072635;28;20029;-66
2022/03/29 08:52:20;;;;;;;19.17;12.05;;;;;;;17.84;25.94;94889.94;5072136;28;20082;-66
2022/03/29 08:54:46;;;;;;;14.85;10.65;;;;;;;18.03;25.80;94883.75;5071332;28;20139;-66
2022/03/29 08:57:12;;;;;;;12.55;10.75;;;;;;;18.51;24.99;94876.09;5072703;28;20115;-65
2022/03/29 08:59:40;;;;;;;19.85;10.85;;;;;;;17.84;26.01;94867.63;5071289;28;20063;-65
2022/03/29 09:02:15;;;;;;;18.73;11.80;;;;;;;19.07;24.71;94886.22;5072242;28;20059;-66
2022/03/29 09:04:41;;;;;;;13.02;11.73;;;;;;;19.02;24.41;94870.34;5072749;28;20412;-66
2022/03/29 09:07:07;;;;;;;19.05;11.30;;;;;;;19.14;24.53;94867.44;5071071;28;20086;-67
2022/03/29 09:09:33;;;;;;;13.82;11.07;;;;;;;19.73;24.03;94879.38;5072211;28;20045;-66
2022/03/29 09:12:10;;;;;;;13.88;11.07;;;;;;;18.99;24.42;94883.75;5071011;28;20024;-66
2022/03/29 09:14:51;;;;;;;13.15;10.93;;;;;;;21.03;22.69;94868.56;5072248;28;20464;-66
2022/03/29 09:17:34;;;;;;;17.08;10.98;;;;;;;20.30;22.87;94873.00;5070852;28;20033;-67
2022/03/29 09:20:09;;;;;;;14.02;12.27;;;;;;;19.25;23.49;94874.91;5072434;28;20032;-66
2022/03/29 09:22:37;;;;;;;19.58;11.25;;;;;;;18.89;23.42;94869.78;5072058;28;20103;-66
2022/03/29 09:25:04;;;;;;;17.55;11.60;;;;;;;18.84;24.26;94862.03;5070717;28;20024;-66
2022/03/29 09:27:30;;;;;;;14.10;10.88;;;;;;;18.80;24.41;94852.31;5072353;28;20020;-66
2022/03/29 09:30:09;;;;;;;12.52;11.15;;;;;;;18.90;24.57;94871.34;5071646;28;20029;-67
2022/03/29 09:32:51;;;;;;;13.32;11.57;;;;;;;19.09;24.00;94859.69;5071428;28;20023;-67
2022/03/29 09:35:17;;;;;;;18.67;11.63;;;;;;;20.31;22.91;94847.53;5071655;28;20032;-67
2022/03/29 09:37:44;;;;;;;13.90;11.05;;;;;;;19.43;23.63;94859.72;5071732;28;20017;-66
2022/03/29 09:40:10;;;;;;;14.02;11.70;;;;;;;20.47;23.11;94853.47;5070159;28;20052;-66
2022/03/29 09:42:37;;;;;;;14.68;12.23;;;;;;;20.60;22.41;94826.97;5071391;28;20044;-67
2022/03/29 09:45:03;;;;;;;14.57;11.55;;;;;;;20.12;23.22;94825.00;5071509;28;20075;-67
2022/03/29 09:47:29;;;;;;;18.33;12.27;;;;;;;21.02;22.50;94818.34;5070302;28;20509;-67
2022/03/29 09:49:56;;;;;;;15.13;12.23;;;;;;;21.96;21.68;94801.31;5071247;28;20036;-67
2022/03/29 09:52:30;;;;;;;19.27;11.55;;;;;;;21.93;21.69;94840.75;5071183;28;20024;-67
2022/03/29 09:55:15;;;;;;;14.02;12.50;;;;;;;21.68;21.88;94826.38;5069874;28;20473;-67
2022/03/29 09:57:40;;;;;;;14.10;10.93;;;;;;;20.44;23.11;94836.06;5070166;28;20024;-67
2022/03/29 10:00:07;;;;;;;16.73;12.18;;;;;;;20.16;23.50;94789.91;5071220;28;20023;-67
2022/03/29 10:02:35;;;;;;;16.13;11.88;;;;;;;21.08;22.83;94824.94;5071152;28;20082;-67
2022/03/29 10:05:01;;;;;;;13.85;11.88;;;;;;;20.88;22.46;94804.72;5070789;28;20418;-67
2022/03/29 10:07:28;;;;;;;16.10;11.52;;;;;;;21.14;21.80;94790.97;5071157;28;20481;-67
2022/03/29 10:09:54;;;;;;;16.25;11.90;;;;;;;20.30;22.77;94805.47;5071153;28;20033;-67
2022/03/29 10:12:23;;;;;;;14.20;12.07;;;;;;;21.09;22.16;94777.81;5069663;28;20021;-67
2022/03/29 10:14:49;;;;;;;13.63;12.00;;;;;;;22.51;20.18;94790.09;5069832;28;20115;-67
2022/03/29 10:17:16;;;;;;;15.15;12.13;;;;;;;21.29;20.64;94784.47;5071363;28;20028;-69
2022/03/29 10:19:44;;;;;;;16.35;11.45;;;;;;;20.34;21.89;94801.66;5077435;28;20054;-70
2022/03/29 10:22:09;;;;;;;52.55;13.55;;;;;;;19.92;22.35;94788.56;5077266;28;20021;-69
2022/03/29 10:24:35;;;;;;;17.15;12.95;;;;;;;19.93;22.93;94779.31;5073677;28;20079;-68
2022/03/29 10:27:02;;;;;;;14.15;11.38;;;;;;;21.85;20.84;94785.00;5071165;28;20023;-67
2022/03/29 10:29:29;;;;;;;17.27;11.68;;;;;;;22.26;20.27;94750.25;5070549;28;20028;-66
2022/03/29 10:31:55;;;;;;;16.15;12.30;;;;;;;21.86;20.93;94793.94;5070217;28;20024;-66
2022/03/29 10:34:26;;;;;;;15.68;11.50;;;;;;;21.87;20.52;94747.53;5070887;28;20024;-65
2022/03/29 10:37:14;;;;;;;15.07;11.95;;;;;;;22.41;20.09;94783.53;5070916;28;20040;-65
2022/03/29 10:39:53;;;;;;;13.10;11.57;;;;;;;22.62;19.78;94788.16;5070966;28;20017;-66
2022/03/29 10:42:42;;;;;;;16.27;11.57;;;;;;;22.31;19.91;94776.94;5070523;28;20101;-66
2022/03/29 10:45:12;;;;;;;12.27;10.80;;;;;;;22.12;19.79;94763.81;5069502;28;20032;-65
2022/03/29 10:47:39;;;;;;;14.02;11.63;;;;;;;22.57;19.63;94786.63;5069530;28;20066;-65
2022/03/29 10:50:08;;;;;;;17.13;11.35;;;;;;;21.92;20.27;94789.69;5070506;28;20036;-66
2022/03/29 10:52:42;;;;;;;13.48;10.93;;;;;;;20.79;21.70;94788.88;5070541;28;20028;-66
2022/03/29 10:55:25;;;;;;;16.17;11.88;;;;;;;19.52;23.44;94787.38;5070891;28;20401;-65
2022/03/29 10:58:12;;;;;;;12.73;10.00;;;;;;;19.23;23.81;94783.56;5069656;28;20027;-66
2022/03/29 11:00:41;;;;;;;11.73;10.45;;;;;;;18.98;23.96;94759.00;5070177;28;20020;-66
2022/03/29 11:03:07;;;;;;;13.73;11.27;;;;;;;19.15;23.81;94763.06;5069385;28;20484;-67
2022/03/29 11:05:32;;;;;;;14.85;10.90;;;;;;;19.57;23.11;94751.97;5070511;28;20028;-67
2022/03/29 11:08:11;;;;;;;17.40;11.57;;;;;;;20.09;22.54;94742.03;5069111;28;20040;-66
2022/03/29 11:10:42;;;;;;;18.20;11.55;;;;;;;20.16;22.58;94754.81;5068887;28;20017;-67
2022/03/29 11:13:24;;;;;;;19.05;11.20;;;;;;;19.55;23.35;94786.66;5069586;28;20388;-67
2022/03/29 11:15:49;;;;;;;19.45;11.13;;;;;;;19.39;23.36;94746.38;5069416;28;20048;-66
2022/03/29 11:18:30;;;;;;;17.35;11.00;;;;;;;19.89;23.15;94771.19;5070620;28;20039;-66
2022/03/29 11:21:02;;;;;;;15.80;11.73;;;;;;;21.32;21.68;94768.66;5068837;28;20120;-65